Time;durP1;ratioP1;P1;durP2;ratioP2;P2;SDS_P1;SDS_P2;PMS_P1;PMS_P2;Temp;Humidity;BMP_temperature;BMP_pressure;BME280_temperature;BME280_humidity;BME280_pressure;Samples;Min_cycle;Max_cycle;Signal;HPM_P1;HPM_P2
2021/01/12 00:00:28;;;;;;;32.35;16.40;;;;;;;-3.70;66.02;95861.94;4972363;28;20381;-48
2021/01/12 00:02:56;;;;;;;33.13;15.43;;;;;;;-3.85;66.72;95861.72;4972388;28;20512;-46
2021/01/12 00:05:23;;;;;;;31.98;16.50;;;;;;;-3.94;66.75;95857.88;4972575;28;20082;-56
2021/01/12 00:07:50;;;;;;;30.98;16.85;;;;;;;-3.98;66.57;95846.97;4956335;28;20078;-49
2021/01/12 00:10:19;;;;;;;31.58;16.15;;;;;;;-3.89;66.51;95850.03;5011375;28;20065;-49
2021/01/12 00:12:45;;;;;;;33.65;16.80;;;;;;;-3.78;66.38;95849.91;5010612;28;20530;-46
2021/01/12 00:15:12;;;;;;;31.30;15.93;;;;;;;-3.73;65.84;95848.41;5011419;28;20056;-47
2021/01/12 00:17:39;;;;;;;33.72;16.35;;;;;;;-3.90;65.98;95836.00;4974656;28;20139;-47
2021/01/12 00:20:08;;;;;;;28.88;15.02;;;;;;;-3.88;66.50;95841.03;4985929;28;20330;-49
2021/01/12 00:22:34;;;;;;;29.70;16.48;;;;;;;-3.81;66.17;95834.53;4991558;28;20081;-45
2021/01/12 00:25:00;;;;;;;28.88;16.13;;;;;;;-3.88;66.33;95827.81;4991718;28;20050;-45
2021/01/12 00:27:28;;;;;;;31.80;16.75;;;;;;;-3.81;66.13;95817.88;4985637;28;20070;-47
2021/01/12 00:29:54;;;;;;;30.60;16.65;;;;;;;-3.77;65.76;95811.88;4972368;28;20047;-45
2021/01/12 00:32:23;;;;;;;29.48;16.83;;;;;;;-3.85;65.44;95799.06;4971590;28;20721;-45
2021/01/12 00:34:49;;;;;;;32.10;16.45;;;;;;;-3.78;65.42;95814.75;4971183;28;20047;-45
2021/01/12 00:37:17;;;;;;;27.30;15.48;;;;;;;-3.80;65.57;95817.66;4972134;28;20079;-46
2021/01/12 00:39:43;;;;;;;28.90;15.30;;;;;;;-3.85;65.41;95816.78;4972403;28;20082;-46
2021/01/12 00:42:10;;;;;;;31.63;15.65;;;;;;;-3.79;65.40;95829.00;4971497;28;20129;-43
2021/01/12 00:44:36;;;;;;;31.05;15.40;;;;;;;-3.67;65.14;95831.53;4955190;28;20560;-44
2021/01/12 00:47:05;;;;;;;33.20;16.27;;;;;;;-3.66;64.88;95844.53;4954737;28;20051;-44
2021/01/12 00:49:33;;;;;;;27.98;14.52;;;;;;;-3.43;64.38;95845.34;4954622;28;20471;-45
2021/01/12 00:51:59;;;;;;;27.50;15.50;;;;;;;-3.48;63.82;95846.06;4954136;28;20141;-47
2021/01/12 00:54:26;;;;;;;32.50;15.48;;;;;;;-3.44;64.19;95856.97;4955322;28;20169;-47
2021/01/12 00:56:53;;;;;;;25.30;14.43;;;;;;;-3.31;63.50;95840.75;4972178;28;20110;-44
2021/01/12 00:59:21;;;;;;;28.10;15.02;;;;;;;-3.44;63.60;95846.41;4954533;28;20050;-47
2021/01/12 01:01:48;;;;;;;27.92;14.93;;;;;;;-3.39;64.10;95835.88;4971239;28;20117;-46
2021/01/12 01:04:16;;;;;;;30.23;15.48;;;;;;;-3.30;63.59;95832.53;4972472;28;20051;-46
2021/01/12 01:06:43;;;;;;;27.85;14.60;;;;;;;-3.33;63.17;95821.66;4975743;28;20149;-49
2021/01/12 01:09:11;;;;;;;30.08;14.95;;;;;;;-3.31;62.75;95830.16;4975182;28;20213;-47
2021/01/12 01:11:44;;;;;;;25.77;14.27;;;;;;;-3.24;62.63;95817.53;4974678;28;20568;-47
2021/01/12 01:14:11;;;;;;;25.65;14.50;;;;;;;-3.28;62.82;95811.16;4975445;28;20082;-46
2021/01/12 01:16:39;;;;;;;27.60;14.85;;;;;;;-3.32;63.02;95807.38;4975046;28;20043;-46
2021/01/12 01:19:06;;;;;;;31.90;16.38;;;;;;;-3.12;62.47;95828.78;4975159;28;20082;-44
2021/01/12 01:21:33;;;;;;;26.45;13.77;;;;;;;-3.07;61.99;95815.59;4974496;28;20432;-44
2021/01/12 01:24:00;;;;;;;24.88;13.90;;;;;;;-3.29;62.75;95825.41;4975122;28;20102;-46
2021/01/12 01:26:27;;;;;;;28.42;15.20;;;;;;;-3.26;62.34;95822.25;4975098;28;20051;-45
2021/01/12 01:28:54;;;;;;;24.48;13.48;;;;;;;-3.05;61.84;95841.84;4957510;28;20053;-48
2021/01/12 01:31:20;;;;;;;26.20;14.02;;;;;;;-3.11;61.41;95830.38;4974499;28;20493;-45
2021/01/12 01:33:47;;;;;;;28.98;14.70;;;;;;;-3.22;62.42;95836.59;4974776;28;20058;-45
2021/01/12 01:36:14;;;;;;;26.27;14.60;;;;;;;-3.13;62.22;95827.16;4974994;28;20062;-44
2021/01/12 01:38:42;;;;;;;28.75;14.20;;;;;;;-3.33;62.33;95829.59;4975044;28;20054;-48
2021/01/12 01:41:10;;;;;;;24.70;13.75;;;;;;;-2.94;62.16;95827.66;4974058;28;20055;-45
2021/01/12 01:43:37;;;;;;;26.73;15.90;;;;;;;-2.84;61.66;95829.59;4974599;28;20055;-46
2021/01/12 01:46:07;;;;;;;26.25;14.20;;;;;;;-2.87;61.37;95822.16;4974569;28;20121;-47
2021/01/12 01:48:36;;;;;;;26.33;13.55;;;;;;;-2.87;61.78;95838.03;4974631;28;20085;-46
2021/01/12 01:51:04;;;;;;;26.90;13.60;;;;;;;-3.10;61.78;95834.63;4973879;28;20510;-45
2021/01/12 01:53:35;;;;;;;28.13;14.80;;;;;;;-3.12;62.47;95844.66;4974616;28;20050;-47
2021/01/12 01:56:04;;;;;;;25.63;14.00;;;;;;;-3.14;62.31;95833.53;4975155;28;20113;-44
2021/01/12 01:58:32;;;;;;;26.50;14.77;;;;;;;-3.23;62.83;95837.66;4994184;28;20046;-46
2021/01/12 02:00:58;;;;;;;21.90;12.82;;;;;;;-3.18;62.44;95845.66;4993124;28;20112;-49
2021/01/12 02:03:39;;;;;;;25.33;13.70;;;;;;;-3.26;62.93;95854.00;4993971;28;20058;-47
2021/01/12 02:06:22;;;;;;;27.90;13.60;;;;;;;-3.23;63.13;95842.94;4990861;28;20598;-44
2021/01/12 02:08:56;;;;;;;24.60;13.48;;;;;;;-3.14;62.34;95817.66;4974383;28;20055;-44
2021/01/12 02:11:25;;;;;;;25.52;14.70;;;;;;;-2.97;61.95;95822.06;4973572;28;20137;-46
2021/01/12 02:13:58;;;;;;;28.00;14.55;;;;;;;-2.99;62.13;95827.59;4974218;28;20081;-47
2021/01/12 02:16:28;;;;;;;23.77;13.30;;;;;;;-3.12;62.28;95817.38;4990839;28;20480;-47
2021/01/12 02:18:56;;;;;;;24.90;13.98;;;;;;;-3.00;62.39;95809.31;4996956;28;20069;-46
2021/01/12 02:21:23;;;;;;;24.85;13.00;;;;;;;-2.84;61.44;95806.56;4955987;28;20413;-46
2021/01/12 02:23:53;;;;;;;25.55;14.20;;;;;;;-3.04;62.20;95795.00;4974182;28;20078;-45
2021/01/12 02:26:20;;;;;;;25.23;14.02;;;;;;;-3.11;62.07;95782.75;4956609;28;20082;-47
2021/01/12 02:28:47;;;;;;;25.52;13.80;;;;;;;-3.04;62.46;95769.31;4956885;28;20055;-50
2021/01/12 02:31:15;;;;;;;27.42;15.13;;;;;;;-2.72;62.09;95782.59;4973208;28;20051;-47
2021/01/12 02:33:47;;;;;;;26.73;13.93;;;;;;;-2.68;61.56;95765.13;4956875;28;20058;-47
2021/01/12 02:36:16;;;;;;;23.25;13.15;;;;;;;-2.86;61.88;95763.66;4973388;28;20088;-46
2021/01/12 02:38:42;;;;;;;24.45;14.25;;;;;;;-2.85;61.56;95752.03;4973869;28;20054;-45
2021/01/12 02:41:14;;;;;;;25.73;13.27;;;;;;;-2.72;61.66;95753.47;4955995;28;20460;-45
2021/01/12 02:43:41;;;;;;;27.90;13.77;;;;;;;-2.68;61.52;95759.03;4973823;28;20058;-45
2021/01/12 02:46:09;;;;;;;25.10;13.40;;;;;;;-2.67;60.93;95748.19;4973427;28;20540;-46
2021/01/12 02:48:37;;;;;;;25.77;13.43;;;;;;;-2.74;61.56;95755.56;4974998;28;20129;-47
2021/01/12 02:51:07;;;;;;;26.90;14.00;;;;;;;-2.60;61.26;95759.38;4992513;28;20057;-45
2021/01/12 02:53:34;;;;;;;25.58;13.93;;;;;;;-2.73;61.17;95769.59;4976162;28;20070;-44
2021/01/12 02:56:00;;;;;;;24.63;12.63;;;;;;;-2.93;61.61;95778.94;4993137;28;20061;-45
2021/01/12 02:58:27;;;;;;;26.15;12.52;;;;;;;-2.95;61.83;95777.63;4976990;28;20097;-45
2021/01/12 03:00:53;;;;;;;26.42;13.43;;;;;;;-3.00;62.45;95773.06;4973044;28;20083;-49
2021/01/12 03:03:20;;;;;;;25.20;12.77;;;;;;;-2.92;62.16;95766.53;4973459;28;20523;-48
2021/01/12 03:05:46;;;;;;;23.95;13.30;;;;;;;-2.77;61.56;95761.34;4973241;28;20058;-47
2021/01/12 03:08:14;;;;;;;25.38;13.73;;;;;;;-2.85;61.67;95759.16;4973551;28;20059;-48
2021/01/12 03:10:40;;;;;;;21.90;12.90;;;;;;;-2.95;62.11;95753.78;4973702;28;20057;-47
2021/01/12 03:13:07;;;;;;;25.48;13.57;;;;;;;-2.75;61.40;95753.97;4972577;28;20059;-49
2021/01/12 03:15:38;;;;;;;24.95;13.02;;;;;;;-2.64;61.51;95752.19;4973329;28;20149;-49
2021/01/12 03:18:08;;;;;;;27.33;14.50;;;;;;;-2.50;60.62;95760.50;4970174;28;20073;-50
2021/01/12 03:20:35;;;;;;;23.33;12.95;;;;;;;-2.69;61.37;95745.00;4974898;28;20054;-46
2021/01/12 03:23:02;;;;;;;25.27;13.77;;;;;;;-2.68;61.65;95736.00;4972531;28;20051;-46
2021/01/12 03:25:29;;;;;;;21.35;12.63;;;;;;;-2.67;61.18;95723.56;4973238;28;20078;-48
2021/01/12 03:27:56;;;;;;;24.50;11.98;;;;;;;-2.42;60.76;95715.00;4954825;28;20051;-47
2021/01/12 03:30:23;;;;;;;26.42;13.80;;;;;;;-2.63;60.86;95714.06;4973008;28;20457;-47
2021/01/12 03:32:52;;;;;;;23.23;12.52;;;;;;;-2.86;61.68;95709.91;4972131;28;20473;-45
2021/01/12 03:35:19;;;;;;;26.50;12.80;;;;;;;-2.76;61.64;95715.31;4972850;28;20133;-46
2021/01/12 03:37:46;;;;;;;24.42;13.30;;;;;;;-2.66;61.44;95707.44;4972758;28;20468;-47
2021/01/12 03:40:12;;;;;;;24.40;13.18;;;;;;;-2.66;61.37;95704.78;4972489;28;20053;-47
2021/01/12 03:42:39;;;;;;;26.42;13.75;;;;;;;-2.47;61.28;95701.72;4971642;28;20046;-47
2021/01/12 03:45:07;;;;;;;26.08;13.50;;;;;;;-2.47;60.58;95699.88;4955745;28;20047;-47
2021/01/12 03:47:35;;;;;;;25.05;13.38;;;;;;;-2.44;60.68;95703.84;4972682;28;20060;-47
2021/01/12 03:50:03;;;;;;;25.42;13.20;;;;;;;-2.65;61.06;95702.94;4971988;28;20209;-45
2021/01/12 03:52:31;;;;;;;24.67;13.60;;;;;;;-2.40;60.24;95692.50;4971828;28;20076;-46
2021/01/12 03:54:57;;;;;;;25.98;13.52;;;;;;;-2.27;59.77;95680.66;4972516;28;20504;-48
2021/01/12 03:57:24;;;;;;;25.60;13.85;;;;;;;-2.26;59.62;95681.44;4972403;28;20105;-46
2021/01/12 03:59:50;;;;;;;26.50;13.18;;;;;;;-2.33;59.78;95676.38;4972624;28;20158;-47
2021/01/12 04:02:17;;;;;;;24.00;12.18;;;;;;;-2.40;59.70;95665.22;4971624;28;20451;-47
2021/01/12 04:04:44;;;;;;;25.60;13.77;;;;;;;-2.36;60.18;95663.66;4972396;28;20054;-48
2021/01/12 04:07:10;;;;;;;25.20;13.07;;;;;;;-2.39;60.35;95664.94;4972078;28;20066;-50
2021/01/12 04:09:39;;;;;;;23.63;13.30;;;;;;;-2.45;60.41;95681.06;4972202;28;20057;-48
2021/01/12 04:12:06;;;;;;;23.67;13.52;;;;;;;-2.36;60.27;95677.69;4971838;28;20042;-48
2021/01/12 04:14:33;;;;;;;22.60;12.45;;;;;;;-2.31;60.24;95660.22;4972480;28;20105;-47
2021/01/12 04:16:59;;;;;;;26.08;14.43;;;;;;;-2.36;60.42;95659.13;4972140;28;20158;-50
2021/01/12 04:19:26;;;;;;;27.25;13.25;;;;;;;-2.34;60.26;95648.25;4989748;28;20054;-50
2021/01/12 04:21:52;;;;;;;25.40;12.50;;;;;;;-2.32;60.26;95648.81;4971534;28;20129;-48
2021/01/12 04:24:18;;;;;;;23.15;12.70;;;;;;;-2.32;60.32;95638.22;4972052;28;20575;-46
2021/01/12 04:26:45;;;;;;;20.65;11.48;;;;;;;-2.42;60.12;95635.53;4972380;28;20046;-45
2021/01/12 04:29:11;;;;;;;22.42;12.10;;;;;;;-2.17;59.88;95633.00;4980329;28;20050;-48
2021/01/12 04:31:38;;;;;;;23.27;11.88;;;;;;;-2.31;59.59;95631.84;4990993;28;20054;-45
2021/01/12 04:34:04;;;;;;;22.23;11.55;;;;;;;-2.31;60.00;95626.56;4992431;28;20054;-49
2021/01/12 04:36:31;;;;;;;21.25;11.93;;;;;;;-2.55;60.51;95610.28;4992439;28;20441;-49
2021/01/12 04:38:57;;;;;;;19.58;11.88;;;;;;;-2.67;60.32;95607.81;4974974;28;20145;-47
2021/01/12 04:41:24;;;;;;;23.30;11.65;;;;;;;-2.36;59.87;95613.31;4976767;28;20089;-48
2021/01/12 04:43:50;;;;;;;20.08;11.32;;;;;;;-2.35;59.80;95607.72;4978287;28;20074;-46
2021/01/12 04:46:16;;;;;;;18.55;11.57;;;;;;;-2.30;60.00;95612.28;4983287;28;20082;-48
2021/01/12 04:48:43;;;;;;;18.73;10.48;;;;;;;-2.42;60.20;95595.78;4993411;28;20507;-48
2021/01/12 04:51:10;;;;;;;19.85;10.10;;;;;;;-2.38;60.56;95607.44;4976454;28;20050;-47
2021/01/12 04:53:48;;;;;;;20.25;10.45;;;;;;;-2.23;60.43;95604.09;4976579;28;20042;-46
2021/01/12 04:56:15;;;;;;;20.75;10.77;;;;;;;-2.16;60.45;95602.00;4976706;28;20055;-48
2021/01/12 04:58:43;;;;;;;19.35;10.13;;;;;;;-2.09;60.78;95610.50;4978949;28;20074;-48
2021/01/12 05:01:13;;;;;;;21.15;11.10;;;;;;;-2.19;61.08;95600.66;4995373;28;20058;-44
2021/01/12 05:03:45;;;;;;;21.58;11.00;;;;;;;-2.10;61.73;95605.47;4996018;28;20506;-46
2021/01/12 05:06:13;;;;;;;22.00;11.55;;;;;;;-2.12;61.80;95590.59;4998204;28;20069;-45
2021/01/12 05:08:43;;;;;;;24.10;11.88;;;;;;;-2.14;62.44;95595.38;4988089;28;20050;-49
2021/01/12 05:11:14;;;;;;;23.38;11.98;;;;;;;-1.96;61.68;95601.25;4978190;28;20113;-44
2021/01/12 05:13:44;;;;;;;24.23;12.43;;;;;;;-2.24;62.87;95590.03;4983409;28;20090;-47
2021/01/12 05:16:11;;;;;;;23.65;13.65;;;;;;;-2.12;62.57;95592.44;4966901;28;20146;-45
2021/01/12 05:18:41;;;;;;;22.52;12.60;;;;;;;-2.16;62.48;95586.09;4998601;28;20062;-48
2021/01/12 05:21:13;;;;;;;25.15;13.23;;;;;;;-1.99;61.94;95589.31;4975706;28;20053;-47
2021/01/12 05:24:00;;;;;;;22.00;12.10;;;;;;;-1.96;61.84;95582.69;4977480;28;20055;-46
2021/01/12 05:26:35;;;;;;;23.65;12.20;;;;;;;-1.95;61.84;95576.31;4978635;28;20078;-48
2021/01/12 05:29:03;;;;;;;23.33;12.50;;;;;;;-1.85;61.60;95584.34;4979488;28;20393;-48
2021/01/12 05:31:31;;;;;;;29.38;12.70;;;;;;;-1.91;61.61;95580.06;4977953;28;20110;-50
2021/01/12 05:34:06;;;;;;;21.33;12.35;;;;;;;-1.82;60.83;95591.75;4979191;28;20464;-47
2021/01/12 05:36:46;;;;;;;25.10;13.02;;;;;;;-1.91;61.27;95574.78;4978946;28;20122;-47
2021/01/12 05:39:18;;;;;;;25.02;12.35;;;;;;;-2.21;61.31;95556.91;4986353;28;20054;-46
2021/01/12 05:41:47;;;;;;;22.60;11.73;;;;;;;-2.27;62.19;95563.28;4994858;28;20062;-46
2021/01/12 05:44:19;;;;;;;24.77;12.85;;;;;;;-2.27;62.17;95569.38;5018861;23;20049;-45
2021/01/12 05:46:48;;;;;;;22.75;11.88;;;;;;;-2.20;61.90;95559.31;5008434;28;20061;-47
2021/01/12 05:49:18;;;;;;;22.88;12.02;;;;;;;-2.08;62.06;95559.09;4993632;28;20474;-44
2021/01/12 05:51:46;;;;;;;22.42;11.73;;;;;;;-2.08;61.90;95550.31;4991642;28;20515;-49
2021/01/12 05:54:29;;;;;;;21.45;11.88;;;;;;;-2.09;62.03;95538.91;4979207;28;20059;-46
2021/01/12 05:57:06;;;;;;;22.00;11.65;;;;;;;-2.12;62.44;95534.94;4974062;28;20059;-45
2021/01/12 05:59:37;;;;;;;22.33;11.48;;;;;;;-2.21;62.84;95530.41;4974285;28;20471;-45
2021/01/12 06:02:08;;;;;;;21.88;11.73;;;;;;;-2.24;63.01;95530.91;4973462;28;20489;-46
2021/01/12 06:04:36;;;;;;;20.52;11.35;;;;;;;-2.26;63.72;95527.75;4974039;28;20445;-47
2021/01/12 06:07:04;;;;;;;19.27;10.20;;;;;;;-2.07;63.42;95536.81;4973953;28;20081;-48
2021/01/12 06:09:31;;;;;;;18.65;10.30;;;;;;;-2.04;64.05;95524.91;4974215;28;20050;-45
2021/01/12 06:11:58;;;;;;;19.35;10.43;;;;;;;-2.14;64.52;95523.03;4973755;28;20053;-46
2021/01/12 06:14:29;;;;;;;17.67;9.85;;;;;;;-2.11;64.82;95525.16;4974156;28;20476;-47
2021/01/12 06:16:58;;;;;;;17.85;9.80;;;;;;;-1.96;64.70;95527.81;4974020;28;20587;-45
2021/01/12 06:19:26;;;;;;;18.20;10.23;;;;;;;-1.98;64.85;95515.88;4991272;28;20059;-47
2021/01/12 06:21:56;;;;;;;16.27;9.18;;;;;;;-1.85;65.14;95520.69;4973198;28;20134;-47
2021/01/12 06:24:38;;;;;;;17.55;8.93;;;;;;;-1.81;64.94;95521.75;4974074;28;20432;-49
2021/01/12 06:27:12;;;;;;;17.80;9.40;;;;;;;-1.82;65.18;95509.56;4974100;28;20051;-46
2021/01/12 06:29:39;;;;;;;17.58;9.23;;;;;;;-1.75;65.38;95518.03;4992848;28;20086;-46
2021/01/12 06:32:05;;;;;;;16.20;9.30;;;;;;;-1.64;65.50;95497.63;4992566;28;20046;-46
2021/01/12 06:34:39;;;;;;;16.25;8.15;;;;;;;-1.72;66.26;95488.34;4992877;28;20066;-45
2021/01/12 06:37:10;;;;;;;18.17;9.75;;;;;;;-1.71;66.82;95481.19;4990424;28;20469;-44
2021/01/12 06:39:41;;;;;;;15.55;8.82;;;;;;;-1.66;67.36;95474.03;4993011;28;20058;-46
2021/01/12 06:42:09;;;;;;;12.77;7.22;;;;;;;-1.54;67.36;95481.69;4992162;28;20967;-45
2021/01/12 06:44:37;;;;;;;12.75;7.28;;;;;;;-1.52;67.98;95471.63;4992917;28;20145;-45
2021/01/12 06:47:05;;;;;;;12.23;7.25;;;;;;;-1.30;67.83;95470.50;4973494;28;20073;-45
2021/01/12 06:49:33;;;;;;;13.43;6.95;;;;;;;-1.26;67.98;95464.44;4973276;28;20137;-50
2021/01/12 06:52:13;;;;;;;13.10;6.97;;;;;;;-1.06;67.73;95470.75;4991232;28;20105;-45
2021/01/12 06:54:41;;;;;;;10.68;5.93;;;;;;;-1.26;68.44;95467.06;4992876;28;20050;-44
2021/01/12 06:57:13;;;;;;;21.42;12.30;;;;;;;-1.24;69.07;95480.06;4983932;28;20085;-45
2021/01/12 06:59:46;;;;;;;11.63;6.97;;;;;;;-1.10;68.70;95477.66;4973318;28;20137;-47
2021/01/12 07:02:29;;;;;;;9.98;5.80;;;;;;;-1.03;68.31;95476.31;4988553;28;20050;-47
2021/01/12 07:05:05;;;;;;;9.75;5.47;;;;;;;-0.79;67.61;95468.53;4992634;28;20060;-46
2021/01/12 07:07:36;;;;;;;9.90;5.70;;;;;;;-1.00;68.34;95478.44;4987907;28;20096;-47
2021/01/12 07:10:06;;;;;;;10.80;6.07;;;;;;;-0.85;67.60;95471.47;4992566;28;20137;-48
2021/01/12 07:12:33;;;;;;;11.18;6.13;;;;;;;-0.74;67.17;95475.69;4991266;28;20146;-46
2021/01/12 07:15:15;;;;;;;10.10;5.20;;;;;;;-0.72;67.08;95466.38;4992277;28;20058;-45
2021/01/12 07:17:46;;;;;;;9.52;4.93;;;;;;;-0.74;67.01;95465.06;4992307;28;20709;-47
2021/01/12 07:20:19;;;;;;;9.25;4.88;;;;;;;-0.86;67.34;95452.09;4986619;28;20141;-46
2021/01/12 07:23:01;;;;;;;9.63;5.40;;;;;;;-0.64;66.86;95453.63;4989241;28;20081;-45
2021/01/12 07:25:29;;;;;;;7.55;4.50;;;;;;;-0.64;67.18;95461.59;4986608;28;20124;-47
2021/01/12 07:28:06;;;;;;;8.88;4.72;;;;;;;-0.59;67.17;95464.19;4986977;28;20158;-47
2021/01/12 07:30:35;;;;;;;8.90;4.75;;;;;;;-0.54;67.10;95450.91;4991754;28;20062;-45
2021/01/12 07:33:04;;;;;;;9.05;5.07;;;;;;;-0.53;67.06;95457.81;4989976;28;20065;-47
2021/01/12 07:35:31;;;;;;;9.07;4.28;;;;;;;-0.53;67.25;95453.28;4990828;28;20060;-45
2021/01/12 07:37:58;;;;;;;7.78;4.28;;;;;;;-0.48;67.39;95444.50;4981200;28;20054;-47
2021/01/12 07:40:25;;;;;;;7.38;3.70;;;;;;;-0.44;67.34;95429.59;4990633;28;20039;-46
2021/01/12 07:42:53;;;;;;;8.32;4.03;;;;;;;-0.34;67.29;95445.47;4990398;28;20117;-47
2021/01/12 07:45:23;;;;;;;8.90;5.25;;;;;;;-0.18;67.15;95442.72;4990444;28;20057;-47
2021/01/12 07:47:51;;;;;;;7.78;4.43;;;;;;;-0.10;67.11;95445.59;4990714;28;20130;-47
2021/01/12 07:50:20;;;;;;;7.38;3.75;;;;;;;-0.16;67.35;95425.44;4984325;28;20091;-48
2021/01/12 07:52:47;;;;;;;6.70;3.70;;;;;;;-0.17;67.66;95431.03;4983761;28;20053;-47
2021/01/12 07:55:13;;;;;;;7.78;4.22;;;;;;;-0.07;67.52;95430.94;4991480;28;20521;-48
2021/01/12 07:57:40;;;;;;;7.55;3.60;;;;;;;-0.05;67.72;95426.16;4991436;28;20081;-45
2021/01/12 08:00:11;;;;;;;9.18;4.80;;;;;;;0.08;67.44;95419.41;4983269;28;20054;-46
2021/01/12 08:03:05;;;;;;;7.25;3.80;;;;;;;0.18;67.22;95414.78;4990281;28;20125;-47
2021/01/12 08:05:32;;;;;;;6.97;3.47;;;;;;;0.23;67.35;95420.09;4991442;28;20058;-46
2021/01/12 08:08:05;;;;;;;6.03;3.05;;;;;;;0.18;67.40;95414.78;4984932;28;20125;-47
2021/01/12 08:10:35;;;;;;;6.68;3.53;;;;;;;0.28;67.45;95400.63;4991216;28;20072;-47
2021/01/12 08:13:08;;;;;;;5.45;3.10;;;;;;;0.41;66.58;95388.53;4990803;28;20046;-46
2021/01/12 08:15:36;;;;;;;5.10;3.05;;;;;;;0.50;66.38;95397.50;4994211;28;20050;-48
2021/01/12 08:18:22;;;;;;;5.35;3.08;;;;;;;0.57;66.10;95376.66;4990096;28;20046;-46
2021/01/12 08:20:54;;;;;;;6.40;3.15;;;;;;;0.26;67.58;95394.78;4994675;28;20042;-46
2021/01/12 08:23:20;;;;;;;5.43;3.15;;;;;;;0.42;66.45;95392.75;4991761;28;20566;-46
2021/01/12 08:25:47;;;;;;;6.22;3.33;;;;;;;0.56;66.08;95388.38;4995807;28;20164;-45
2021/01/12 08:28:14;;;;;;;5.72;2.83;;;;;;;0.46;66.23;95394.59;4988662;28;20054;-45
2021/01/12 08:30:43;;;;;;;5.32;2.97;;;;;;;0.55;66.14;95392.09;4994976;28;20056;-46
2021/01/12 08:33:15;;;;;;;5.38;3.10;;;;;;;0.53;66.39;95388.94;4992999;28;20080;-49
2021/01/12 08:35:50;;;;;;;5.82;3.13;;;;;;;0.62;66.17;95373.94;4995361;28;20133;-47
2021/01/12 08:38:21;;;;;;;5.45;2.75;;;;;;;0.79;65.55;95375.38;4987292;28;20054;-48
2021/01/12 08:40:49;;;;;;;5.05;2.88;;;;;;;0.51;65.85;95351.16;4994036;28;20130;-46
2021/01/12 08:43:20;;;;;;;5.75;2.63;;;;;;;0.72;65.71;95357.06;4992612;28;20085;-47
2021/01/12 08:45:47;;;;;;;5.75;2.80;;;;;;;0.86;65.68;95370.50;4995386;28;20128;-49
2021/01/12 08:48:16;;;;;;;4.97;3.05;;;;;;;1.08;65.07;95369.97;4992400;28;20585;-48
2021/01/12 08:50:44;;;;;;;5.85;2.80;;;;;;;0.92;65.63;95366.69;4993330;28;20504;-47
2021/01/12 08:53:14;;;;;;;6.13;2.70;;;;;;;0.93;65.57;95354.97;4994674;28;20137;-49
2021/01/12 08:55:41;;;;;;;5.57;2.63;;;;;;;1.00;65.70;95350.06;4995090;28;20054;-49
2021/01/12 08:58:07;;;;;;;5.13;2.58;;;;;;;1.12;65.58;95347.78;4991457;28;20120;-48
2021/01/12 09:00:36;;;;;;;3.80;2.00;;;;;;;0.98;66.07;95346.91;4995290;28;20065;-51
2021/01/12 09:03:04;;;;;;;4.03;1.98;;;;;;;1.09;65.75;95329.72;4993349;28;20121;-48
2021/01/12 09:05:36;;;;;;;4.20;2.08;;;;;;;1.21;66.16;95344.50;4992138;28;20082;-49
2021/01/12 09:08:05;;;;;;;4.68;1.98;;;;;;;1.27;65.66;95336.16;4993589;28;20051;-50
2021/01/12 09:10:33;;;;;;;4.72;2.47;;;;;;;1.38;65.28;95344.78;5001761;28;20050;-48
2021/01/12 09:13:00;;;;;;;5.28;2.58;;;;;;;1.57;65.05;95342.91;4992492;28;20058;-52
2021/01/12 09:15:29;;;;;;;3.95;2.03;;;;;;;1.41;65.19;95341.56;4986076;28;20054;-48
2021/01/12 09:18:07;;;;;;;3.75;2.05;;;;;;;1.34;65.79;95341.13;4986985;28;20054;-49
2021/01/12 09:20:40;;;;;;;4.63;2.15;;;;;;;1.53;65.44;95349.91;4975805;28;20081;-48
2021/01/12 09:23:12;;;;;;;5.18;2.05;;;;;;;1.44;65.31;95327.66;4975529;28;20105;-47
2021/01/12 09:25:50;;;;;;;3.67;1.77;;;;;;;1.53;65.51;95341.91;4975701;28;20047;-49
2021/01/12 09:28:19;;;;;;;3.78;1.95;;;;;;;1.50;65.63;95331.03;5007998;28;20050;-51
2021/01/12 09:30:46;;;;;;;3.97;1.83;;;;;;;1.69;65.03;95333.66;4994924;28;20105;-49
2021/01/12 09:33:25;;;;;;;2.55;1.60;;;;;;;1.73;64.31;95308.81;4992715;28;20061;-49
2021/01/12 09:36:11;;;;;;;3.50;1.88;;;;;;;1.83;64.70;95313.19;4994561;28;20042;-48
2021/01/12 09:38:39;;;;;;;2.97;1.55;;;;;;;1.87;64.40;95308.84;4983465;28;20141;-47
2021/01/12 09:41:06;;;;;;;3.15;1.70;;;;;;;1.78;64.73;95310.59;4991600;28;20530;-48
2021/01/12 09:43:35;;;;;;;4.28;1.88;;;;;;;1.86;64.99;95304.63;4986048;28;20054;-50
2021/01/12 09:46:04;;;;;;;3.95;1.90;;;;;;;1.87;64.63;95303.53;4973992;28;20129;-48
2021/01/12 09:48:32;;;;;;;5.05;1.85;;;;;;;1.86;64.41;95301.94;4990475;28;20080;-49
2021/01/12 09:51:00;;;;;;;2.78;1.52;;;;;;;1.86;64.44;95300.06;4987268;28;20134;-48
2021/01/12 09:53:27;;;;;;;4.53;2.03;;;;;;;2.04;64.24;95303.75;4971906;28;20079;-47
2021/01/12 09:55:54;;;;;;;3.40;1.60;;;;;;;2.17;63.69;95306.75;4986238;28;20137;-50
2021/01/12 09:58:25;;;;;;;4.85;1.63;;;;;;;2.15;63.65;95304.38;4985251;28;20460;-47
2021/01/12 10:00:52;;;;;;;3.75;1.70;;;;;;;2.12;64.41;95301.53;4988853;28;20503;-48
2021/01/12 10:03:21;;;;;;;2.22;1.35;;;;;;;2.00;64.92;95302.75;4979092;28;20058;-49
2021/01/12 10:05:47;;;;;;;2.47;1.55;;;;;;;2.08;65.27;95315.44;4992606;28;20062;-46
2021/01/12 10:08:14;;;;;;;2.50;1.38;;;;;;;2.00;66.18;95300.09;4990538;28;20105;-51
2021/01/12 10:10:42;;;;;;;3.72;1.77;;;;;;;2.03;67.31;95291.50;4989091;28;20047;-48
2021/01/12 10:13:12;;;;;;;3.28;1.58;;;;;;;2.09;68.41;95287.66;4986371;28;20049;-48
2021/01/12 10:15:40;;;;;;;3.05;1.63;;;;;;;1.95;69.39;95300.19;4989112;28;20523;-49
2021/01/12 10:18:07;;;;;;;3.97;1.33;;;;;;;2.00;70.57;95288.63;4985837;28;20165;-48
2021/01/12 10:20:34;;;;;;;3.50;1.70;;;;;;;1.96;70.36;95285.75;4987316;28;20062;-47
2021/01/12 10:23:07;;;;;;;3.47;1.83;;;;;;;1.89;71.26;95292.56;4985943;28;20049;-50
2021/01/12 10:25:40;;;;;;;3.08;1.60;;;;;;;1.80;72.13;95281.78;5001621;28;20710;-49
2021/01/12 10:28:09;;;;;;;7.63;3.95;;;;;;;1.95;71.95;95278.03;4984638;28;20508;-46
2021/01/12 10:30:38;;;;;;;3.63;1.80;;;;;;;1.87;73.12;95280.28;5000760;28;20121;-47
2021/01/12 10:33:07;;;;;;;8.02;1.70;;;;;;;1.76;74.13;95272.78;4985301;28;20054;-49
2021/01/12 10:35:35;;;;;;;3.00;1.55;;;;;;;1.86;73.98;95273.38;4983819;28;20069;-50
2021/01/12 10:38:05;;;;;;;2.88;1.60;;;;;;;1.52;76.22;95273.66;4989092;28;20137;-46
2021/01/12 10:40:31;;;;;;;3.13;1.80;;;;;;;1.78;75.86;95258.03;4992071;28;20054;-48
2021/01/12 10:42:58;;;;;;;2.67;1.50;;;;;;;1.52;77.51;95263.00;4990715;28;20047;-48
2021/01/12 10:45:27;;;;;;;5.50;1.88;;;;;;;1.60;77.49;95259.69;4988580;28;20050;-48
2021/01/12 10:47:53;;;;;;;2.55;1.40;;;;;;;1.42;79.39;95249.84;4986723;28;20054;-49
2021/01/12 10:50:21;;;;;;;3.30;1.60;;;;;;;1.32;80.63;95260.66;4986637;28;20065;-47
2021/01/12 10:52:48;;;;;;;3.13;1.80;;;;;;;1.09;81.18;95217.81;4985985;28;20046;-47
2021/01/12 10:55:16;;;;;;;3.88;1.67;;;;;;;0.94;82.37;95234.00;4989240;28;20534;-49
2021/01/12 10:57:45;;;;;;;3.40;2.10;;;;;;;0.97;82.59;95222.78;4986365;28;20066;-49
2021/01/12 11:00:15;;;;;;;3.08;1.48;;;;;;;1.12;82.47;95225.22;4981992;28;20069;-48
2021/01/12 11:02:42;;;;;;;5.22;1.80;;;;;;;1.23;82.24;95203.75;4990732;28;20069;-49
2021/01/12 11:05:09;;;;;;;3.83;1.80;;;;;;;1.15;82.46;95210.53;4987718;28;20512;-48
2021/01/12 11:07:39;;;;;;;3.63;1.50;;;;;;;1.04;82.74;95212.59;4987445;28;20137;-50
2021/01/12 11:10:09;;;;;;;3.20;1.57;;;;;;;1.03;82.67;95184.34;4988404;28;20054;-49
2021/01/12 11:12:36;;;;;;;3.13;1.50;;;;;;;1.07;82.86;95193.34;4986043;28;20657;-49
2021/01/12 11:15:04;;;;;;;2.80;1.55;;;;;;;1.25;82.47;95196.28;4984873;28;20129;-48
2021/01/12 11:17:31;;;;;;;4.22;1.70;;;;;;;1.08;82.71;95188.81;4984667;28;20047;-48
2021/01/12 11:19:58;;;;;;;2.65;1.65;;;;;;;1.17;81.76;95189.75;4984624;28;20474;-48
2021/01/12 11:22:27;;;;;;;3.13;1.80;;;;;;;1.15;82.49;95171.38;4986117;28;20144;-50
2021/01/12 11:24:55;;;;;;;4.85;1.80;;;;;;;1.04;81.77;95126.53;4984111;28;20053;-48
2021/01/12 11:27:26;;;;;;;4.80;2.30;;;;;;;1.39;81.62;95167.78;4981886;28;20050;-49
2021/01/12 11:29:54;;;;;;;3.40;1.67;;;;;;;1.27;81.98;95156.78;4986278;28;20464;-52
2021/01/12 11:32:22;;;;;;;7.53;3.45;;;;;;;1.15;82.99;95170.59;4984677;28;20126;-49
2021/01/12 11:34:49;;;;;;;3.58;1.80;;;;;;;1.21;82.71;95148.09;4984255;28;20508;-48